createdAt,value
2022-12-01T00:01:23.245Z,96738.28
2022-12-01T00:03:51.583Z,96731.09
2022-12-01T00:06:21.555Z,96728.50
2022-12-01T00:09:09.009Z,96726.03
2022-12-01T00:11:38.216Z,96721.00
2022-12-01T00:14:07.892Z,96712.66
2022-12-01T00:16:36.231Z,96712.19
2022-12-01T00:19:04.701Z,96714.34
2022-12-01T00:21:32.972Z,96714.34
2022-12-01T00:24:01.215Z,96718.16
2022-12-01T00:26:29.506Z,96714.56
2022-12-01T00:28:58.998Z,96714.22
2022-12-01T00:31:28.969Z,96712.66
2022-12-01T00:33:57.228Z,96709.94
2022-12-01T00:36:25.534Z,96714.22
2022-12-01T00:38:54.582Z,96707.06
2022-12-01T00:41:23.723Z,96709.78
2022-12-01T00:43:52.644Z,96717.06
2022-12-01T00:46:20.969Z,96707.59
2022-12-01T00:48:50.681Z,96707.41
2022-12-01T00:51:18.907Z,96708.09
2022-12-01T00:53:47.146Z,96714.66
2022-12-01T00:56:15.905Z,96713.50
2022-12-01T00:58:44.168Z,96722.91
2022-12-01T01:01:12.484Z,96722.78
2022-12-01T01:03:40.775Z,96719.69
2022-12-01T01:06:12.657Z,96718.03
2022-12-01T01:08:41.389Z,96724.72
2022-12-01T01:11:10.242Z,96721.88
2022-12-01T01:13:38.817Z,96723.66
2022-12-01T01:16:10.686Z,96721.50
2022-12-01T01:18:39.034Z,96719.00
2022-12-01T01:21:09.389Z,96719.47
2022-12-01T01:23:38.980Z,96719.69
2022-12-01T01:26:09.209Z,96720.66
2022-12-01T01:28:37.726Z,96721.25
2022-12-01T01:31:07.340Z,96713.00
2022-12-01T01:33:35.953Z,96707.63
2022-12-01T01:36:05.529Z,96703.91
2022-12-01T01:38:34.615Z,96706.53
2022-12-01T01:41:05.507Z,96709.63
2022-12-01T01:43:43.298Z,96707.00
2022-12-01T01:46:13.357Z,96714.75
2022-12-01T01:48:43.811Z,96712.97
2022-12-01T01:51:13.556Z,96720.44
2022-12-01T01:53:42.006Z,96708.88
2022-12-01T01:56:11.682Z,96710.22
2022-12-01T01:58:40.419Z,96704.84
2022-12-01T02:01:08.868Z,96695.75
2022-12-01T02:03:38.513Z,96710.78
2022-12-01T02:06:07.694Z,96708.25
2022-12-01T02:08:38.044Z,96705.25
2022-12-01T02:11:26.571Z,96692.53
2022-12-01T02:14:03.044Z,96691.31
2022-12-01T02:16:38.729Z,96693.69
2022-12-01T02:19:23.229Z,96691.66
2022-12-01T02:21:58.990Z,96697.13
2022-12-01T02:25:11.905Z,96693.25
2022-12-01T02:28:18.856Z,96692.78
2022-12-01T02:30:50.105Z,96686.00
2022-12-01T02:33:20.741Z,96686.94
2022-12-01T02:35:49.801Z,96685.50
2022-12-01T02:38:24.778Z,96682.88
2022-12-01T02:40:56.815Z,96676.06
2022-12-01T02:43:28.685Z,96676.06
2022-12-01T02:46:01.573Z,96675.34
2022-12-01T02:48:31.861Z,96676.16
2022-12-01T02:51:03.785Z,96670.88
2022-12-01T02:53:32.157Z,96663.69
2022-12-01T02:56:00.610Z,96663.16
2022-12-01T02:58:28.865Z,96663.38
2022-12-01T03:01:08.077Z,96667.00
2022-12-01T03:03:46.947Z,96669.38
2022-12-01T03:06:21.440Z,96661.00
2022-12-01T03:08:53.500Z,96665.31
2022-12-01T03:11:29.852Z,96661.72
2022-12-01T03:14:07.812Z,96663.53
2022-12-01T03:16:42.921Z,96666.03
2022-12-01T03:19:14.163Z,96669.16
2022-12-01T03:21:43.824Z,96662.59
2022-12-01T03:24:14.902Z,96667.44
2022-12-01T03:26:46.562Z,96663.06
2022-12-01T03:29:17.420Z,96668.88
2022-12-01T03:31:49.176Z,96666.34
2022-12-01T03:34:20.388Z,96668.94
2022-12-01T03:36:51.559Z,96672.97
2022-12-01T03:39:22.689Z,96676.53
2022-12-01T03:41:57.545Z,96677.47
2022-12-01T03:44:28.902Z,96667.53
2022-12-01T03:47:01.552Z,96683.44
2022-12-01T03:49:30.315Z,96682.38
2022-12-01T03:52:07.016Z,96673.72
2022-12-01T03:54:45.289Z,96673.66
2022-12-01T03:57:18.966Z,96680.56
2022-12-01T03:59:47.865Z,96682.94
2022-12-01T04:02:18.133Z,96677.44
2022-12-01T04:04:46.379Z,96674.31
2022-12-01T04:07:15.196Z,96683.75
2022-12-01T04:09:43.459Z,96682.88
2022-12-01T04:12:32.839Z,96686.28
2022-12-01T04:15:03.627Z,96684.16
2022-12-01T04:17:33.501Z,96682.34
2022-12-01T04:20:02.009Z,96683.31
2022-12-01T04:22:30.337Z,96682.09
2022-12-01T04:24:58.617Z,96673.56
2022-12-01T04:27:26.994Z,96683.75
2022-12-01T04:29:55.331Z,96671.84
2022-12-01T04:32:23.625Z,96672.69
2022-12-01T04:34:53.419Z,96670.91
2022-12-01T04:37:21.885Z,96673.63
2022-12-01T04:39:50.250Z,96675.09
2022-12-01T04:42:18.632Z,96671.25
2022-12-01T04:44:46.917Z,96670.63
2022-12-01T04:47:15.184Z,96671.50
2022-12-01T04:49:43.593Z,96665.16
2022-12-01T04:52:13.233Z,96674.47
2022-12-01T04:54:41.504Z,96677.00
2022-12-01T04:57:10.149Z,96673.28
2022-12-01T04:59:38.452Z,96680.94
2022-12-01T05:02:06.776Z,96675.94
2022-12-01T05:04:38.658Z,96675.34
2022-12-01T05:07:07.137Z,96673.63
2022-12-01T05:09:37.016Z,96677.69
2022-12-01T05:12:05.882Z,96682.56
2022-12-01T05:14:34.135Z,96680.25
2022-12-01T05:17:02.505Z,96686.53
2022-12-01T05:19:50.880Z,96690.59
2022-12-01T05:22:36.438Z,96681.78
2022-12-01T05:25:09.424Z,96682.09
2022-12-01T05:27:37.649Z,96689.88
2022-12-01T05:30:07.395Z,96683.06
2022-12-01T05:32:35.722Z,96683.41
2022-12-01T05:35:03.997Z,96682.19
2022-12-01T05:37:34.675Z,96682.06
2022-12-01T05:40:02.809Z,96683.13
2022-12-01T05:42:32.463Z,96691.56
2022-12-01T05:45:00.722Z,96692.13
2022-12-01T05:47:29.013Z,96692.88
2022-12-01T05:50:02.141Z,96682.84
2022-12-01T05:52:34.673Z,96684.00
2022-12-01T05:55:02.965Z,96687.22
2022-12-01T05:57:33.017Z,96686.44
2022-12-01T06:00:01.402Z,96685.91
2022-12-01T06:02:29.673Z,96689.47
2022-12-01T06:04:58.013Z,96694.72
2022-12-01T06:07:26.472Z,96688.75
2022-12-01T06:09:54.830Z,96688.63
2022-12-01T06:12:23.070Z,96697.50
2022-12-01T06:14:52.772Z,96703.81
2022-12-01T06:17:21.002Z,96694.41
2022-12-01T06:19:49.561Z,96695.06
2022-12-01T06:22:18.292Z,96697.91
2022-12-01T06:24:46.577Z,96697.47
2022-12-01T06:27:14.909Z,96702.25
2022-12-01T06:29:43.205Z,96694.38
2022-12-01T06:32:12.877Z,96694.50
2022-12-01T06:34:41.186Z,96705.22
2022-12-01T06:37:09.426Z,96699.13
2022-12-01T06:39:37.673Z,96706.25
2022-12-01T06:42:06.601Z,96714.03
2022-12-01T06:44:34.900Z,96711.00
2022-12-01T06:47:03.294Z,96714.13
2022-12-01T06:49:32.967Z,96715.00
2022-12-01T06:52:01.316Z,96719.91
2022-12-01T06:54:29.586Z,96714.75
2022-12-01T06:56:58.658Z,96713.00
2022-12-01T06:59:27.296Z,96708.72
2022-12-01T07:01:57.739Z,96716.91
2022-12-01T07:04:26.062Z,96715.00
2022-12-01T07:06:55.667Z,96716.59
2022-12-01T07:09:23.933Z,96720.28
2022-12-01T07:11:52.218Z,96717.66
2022-12-01T07:14:24.072Z,96720.66
2022-12-01T07:16:52.325Z,96720.03
2022-12-01T07:19:20.598Z,96716.06
2022-12-01T07:21:48.968Z,96715.13
2022-12-01T07:24:18.634Z,96721.84
2022-12-01T07:26:48.562Z,96721.06
2022-12-01T07:29:16.796Z,96728.16
2022-12-01T07:31:45.039Z,96726.53
2022-12-01T07:34:13.994Z,96731.44
2022-12-01T07:36:42.443Z,96731.81
2022-12-01T07:39:10.827Z,96729.81
2022-12-01T07:41:40.475Z,96725.66
2022-12-01T07:44:10.292Z,96731.09
2022-12-01T07:46:38.883Z,96731.81
2022-12-01T07:49:08.207Z,96731.63
2022-12-01T07:51:36.397Z,96735.81
2022-12-01T07:54:06.360Z,96736.16
2022-12-01T07:56:34.874Z,96740.56
2022-12-01T07:59:04.552Z,96733.16
2022-12-01T08:01:33.015Z,96735.09
2022-12-01T08:04:01.457Z,96730.78
2022-12-01T08:06:29.731Z,96730.41
2022-12-01T08:08:58.032Z,96736.53
2022-12-01T08:11:29.496Z,96741.78
2022-12-01T08:13:57.709Z,96739.78
2022-12-01T08:16:27.487Z,96747.44
2022-12-01T08:18:56.079Z,96746.22
2022-12-01T08:21:25.090Z,96746.13
2022-12-01T08:23:54.603Z,96752.06
2022-12-01T08:26:23.834Z,96743.22
2022-12-01T08:28:52.108Z,96742.91
2022-12-01T08:31:21.971Z,96739.06
2022-12-01T08:33:52.051Z,96741.19
2022-12-01T08:36:21.443Z,96751.56
2022-12-01T08:38:51.792Z,96737.91
2022-12-01T08:41:20.785Z,96747.22
2022-12-01T08:43:57.784Z,96745.88
2022-12-01T08:46:27.479Z,96751.25
2022-12-01T08:48:57.883Z,96745.41
2022-12-01T08:51:26.457Z,96748.69
2022-12-01T08:53:56.204Z,96743.81
2022-12-01T08:56:26.966Z,96744.47
2022-12-01T08:58:55.558Z,96745.63
2022-12-01T09:01:25.737Z,96745.22
2022-12-01T09:04:05.644Z,96758.13
2022-12-01T09:06:39.417Z,96744.66
2022-12-01T09:09:07.918Z,96750.88
2022-12-01T09:11:36.223Z,96747.69
2022-12-01T09:14:04.719Z,96746.84
2022-12-01T09:16:33.446Z,96753.19
2022-12-01T09:19:01.857Z,96757.56
2022-12-01T09:21:31.955Z,96750.75
2022-12-01T09:24:02.008Z,96753.13
2022-12-01T09:26:30.244Z,96756.72
2022-12-01T09:29:00.100Z,96764.53
2022-12-01T09:31:28.530Z,96759.22
2022-12-01T09:33:57.534Z,96755.81
2022-12-01T09:36:26.338Z,96753.56
2022-12-01T09:38:54.562Z,96754.09
2022-12-01T09:41:26.901Z,96747.44
2022-12-01T09:44:01.732Z,96743.03
2022-12-01T09:46:33.400Z,96753.97
2022-12-01T09:49:02.715Z,96748.25
2022-12-01T09:51:34.924Z,96747.78
2022-12-01T09:54:03.296Z,96744.16
2022-12-01T09:56:43.646Z,96740.25
2022-12-01T09:59:18.604Z,96740.06
2022-12-01T10:01:50.135Z,96739.56
2022-12-01T10:04:22.243Z,96731.81
2022-12-01T10:06:53.189Z,96738.97
2022-12-01T10:09:27.012Z,96735.00
2022-12-01T10:12:02.164Z,96733.38
2022-12-01T10:14:31.207Z,96732.94
2022-12-01T10:17:04.658Z,96728.34
2022-12-01T10:19:36.122Z,96721.31
2022-12-01T10:22:20.972Z,96714.78
2022-12-01T10:24:56.270Z,96717.47
2022-12-01T10:27:47.177Z,96720.31
2022-12-01T10:30:16.965Z,96714.25
2022-12-01T10:32:52.595Z,96711.84
2022-12-01T10:35:22.700Z,96707.06
2022-12-01T10:37:55.252Z,96711.28
2022-12-01T10:40:23.861Z,96706.44
2022-12-01T10:42:53.397Z,96703.22
2022-12-01T10:45:28.939Z,96697.16
2022-12-01T10:48:13.101Z,96707.06
2022-12-01T10:50:42.025Z,96700.72
2022-12-01T10:53:27.216Z,96708.91
2022-12-01T10:56:03.881Z,96698.63
2022-12-01T10:58:34.736Z,96691.63
2022-12-01T11:01:06.272Z,96688.75
2022-12-01T11:03:36.617Z,96696.47
2022-12-01T11:06:07.033Z,96694.00
2022-12-01T11:08:41.606Z,96689.56
2022-12-01T11:11:25.492Z,96691.53
2022-12-01T11:13:55.505Z,96684.88
2022-12-01T11:16:39.375Z,96683.47
2022-12-01T11:19:26.807Z,96686.72
2022-12-01T11:21:56.732Z,96683.97
2022-12-01T11:24:44.941Z,96680.72
2022-12-01T11:27:18.384Z,96687.34
2022-12-01T11:29:50.958Z,96684.22
2022-12-01T11:32:23.407Z,96682.94
2022-12-01T11:34:55.151Z,96676.91
2022-12-01T11:37:25.266Z,96674.84
2022-12-01T11:39:53.871Z,96677.34
2022-12-01T11:42:25.967Z,96681.91
2022-12-01T11:44:57.124Z,96672.38
2022-12-01T11:47:27.403Z,96673.56
2022-12-01T11:49:57.607Z,96673.19
2022-12-01T11:52:29.916Z,96662.34
2022-12-01T11:55:09.736Z,96670.00
2022-12-01T11:57:40.978Z,96667.66
2022-12-01T12:00:18.783Z,96670.94
2022-12-01T12:02:57.267Z,96668.59
2022-12-01T12:05:45.550Z,96679.34
2022-12-01T12:08:21.806Z,96671.09
2022-12-01T12:10:56.089Z,96667.97
2022-12-01T12:13:50.197Z,96665.31
2022-12-01T12:16:26.327Z,96668.91
2022-12-01T12:19:06.716Z,96667.00
2022-12-01T12:21:36.427Z,96661.63
2022-12-01T12:24:18.224Z,96661.88
2022-12-01T12:26:53.507Z,96667.59
2022-12-01T12:29:33.683Z,96664.25
2022-12-01T12:32:11.137Z,96657.28
2022-12-01T12:34:48.227Z,96652.28
2022-12-01T12:37:24.616Z,96656.09
2022-12-01T12:40:15.913Z,96653.91
2022-12-01T12:42:49.445Z,96653.69
2022-12-01T12:45:23.851Z,96647.50
2022-12-01T12:48:06.672Z,96656.97
2022-12-01T12:50:38.441Z,96657.44
2022-12-01T12:53:11.575Z,96654.94
2022-12-01T12:55:42.439Z,96658.72
2022-12-01T12:58:14.863Z,96657.16
2022-12-01T13:00:47.577Z,96659.19
2022-12-01T13:03:21.250Z,96655.78
2022-12-01T13:05:53.004Z,96659.88
2022-12-01T13:08:22.826Z,96662.66
2022-12-01T13:10:55.443Z,96654.56
2022-12-01T13:13:29.071Z,96651.16
2022-12-01T13:15:59.269Z,96654.72
2022-12-01T13:18:35.358Z,96651.06
2022-12-01T13:21:05.084Z,96649.25
2022-12-01T13:23:34.081Z,96644.56
2022-12-01T13:26:05.043Z,96649.34
2022-12-01T13:28:38.026Z,96653.00
2022-12-01T13:31:08.247Z,96647.50
2022-12-01T13:33:39.188Z,96645.72
2022-12-01T13:39:01.071Z,96632.97
2022-12-01T13:41:30.858Z,96643.38
2022-12-01T13:44:02.029Z,96641.34
2022-12-01T13:46:32.846Z,96635.19
2022-12-01T13:49:04.786Z,96631.06
2022-12-01T13:52:02.721Z,96634.69
2022-12-01T13:54:31.721Z,96637.13
2022-12-01T13:57:02.388Z,96635.22
2022-12-01T13:59:40.676Z,96638.59
2022-12-01T14:02:20.590Z,96634.81
2022-12-01T14:04:50.850Z,96639.63
2022-12-01T14:07:40.239Z,96640.19
2022-12-01T14:10:33.026Z,96637.56
2022-12-01T14:13:04.274Z,96641.69
2022-12-01T14:15:40.359Z,96637.66
2022-12-01T14:18:23.255Z,96632.81
2022-12-01T14:20:53.058Z,96631.06
2022-12-01T14:23:26.058Z,96630.63
2022-12-01T14:26:05.211Z,96631.16
2022-12-01T14:29:19.714Z,96645.34
2022-12-01T14:32:25.248Z,96644.59
2022-12-01T14:35:14.145Z,96641.78
2022-12-01T14:37:49.169Z,96647.66
2022-12-01T14:40:22.569Z,96647.75
2022-12-01T14:43:10.875Z,96646.63
2022-12-01T14:45:42.905Z,96648.22
2022-12-01T14:48:14.079Z,96650.38
2022-12-01T14:50:46.817Z,96650.47
2022-12-01T14:53:22.442Z,96653.16
2022-12-01T14:55:56.253Z,96651.53
2022-12-01T14:58:27.053Z,96653.22
2022-12-01T15:01:00.869Z,96649.59
2022-12-01T15:03:33.355Z,96656.63
2022-12-01T15:06:01.594Z,96642.72
2022-12-01T15:08:42.124Z,96650.72
2022-12-01T15:11:22.581Z,96646.63
2022-12-01T15:13:52.181Z,96650.50
2022-12-01T15:16:21.952Z,96648.41
2022-12-01T15:18:51.525Z,96646.09
2022-12-01T15:21:22.044Z,96657.50
2022-12-01T15:23:59.603Z,96654.00
2022-12-01T15:26:31.225Z,96656.53
2022-12-01T15:29:07.296Z,96646.56
2022-12-01T15:31:36.295Z,96650.13
2022-12-01T15:34:04.829Z,96654.56
2022-12-01T15:36:33.285Z,96651.88
2022-12-01T15:39:07.104Z,96651.00
2022-12-01T15:41:37.024Z,96649.31
2022-12-01T15:44:08.347Z,96652.28
2022-12-01T15:46:36.743Z,96650.38
2022-12-01T15:49:08.673Z,96656.81
2022-12-01T15:51:37.041Z,96655.81
2022-12-01T15:54:06.897Z,96646.94
2022-12-01T15:56:37.851Z,96655.66
2022-12-01T15:59:09.813Z,96648.63
2022-12-01T16:01:38.710Z,96656.88
2022-12-01T16:04:13.966Z,96663.13
2022-12-01T16:06:42.741Z,96651.56
2022-12-01T16:09:23.677Z,96653.78
2022-12-01T16:12:23.032Z,96650.38
2022-12-01T16:14:56.534Z,96650.50
2022-12-01T16:17:25.316Z,96663.84
2022-12-01T16:20:25.727Z,96654.31
2022-12-01T16:22:58.957Z,96654.03
2022-12-01T16:25:35.333Z,96661.31
2022-12-01T16:28:04.592Z,96654.72
2022-12-01T16:30:36.942Z,96653.81
2022-12-01T16:33:07.325Z,96652.84
2022-12-01T16:35:35.544Z,96652.69
2022-12-01T16:38:14.739Z,96659.13
2022-12-01T16:40:44.710Z,96651.41
2022-12-01T16:43:15.557Z,96653.78
2022-12-01T16:45:43.729Z,96656.47
2022-12-01T16:48:11.957Z,96658.56
2022-12-01T16:50:40.656Z,96661.00
2022-12-01T16:53:08.952Z,96661.16
2022-12-01T16:55:39.585Z,96653.31
2022-12-01T16:58:08.946Z,96658.22
2022-12-01T17:00:37.248Z,96654.69
2022-12-01T17:03:06.029Z,96657.25
2022-12-01T17:05:34.499Z,96654.22
2022-12-01T17:08:02.780Z,96655.50
2022-12-01T17:10:31.174Z,96658.16
2022-12-01T17:12:59.511Z,96655.81
2022-12-01T17:15:29.221Z,96656.47
2022-12-01T17:17:57.451Z,96651.63
2022-12-01T17:20:25.664Z,96656.78
2022-12-01T17:22:53.989Z,96650.56
2022-12-01T17:25:22.259Z,96651.25
2022-12-01T17:27:50.510Z,96652.50
2022-12-01T17:30:18.923Z,96653.25
2022-12-01T17:32:48.583Z,96655.00
2022-12-01T17:35:16.925Z,96645.06
2022-12-01T17:37:45.419Z,96649.81
2022-12-01T17:40:14.866Z,96648.69
2022-12-01T17:42:49.930Z,96646.66
2022-12-01T17:45:18.959Z,96646.50
2022-12-01T17:47:48.559Z,96649.06
2022-12-01T17:50:17.390Z,96651.06
2022-12-01T17:52:45.625Z,96654.19
2022-12-01T17:55:14.133Z,96658.63
2022-12-01T17:57:42.358Z,96652.59
2022-12-01T18:00:11.825Z,96661.00
2022-12-01T18:02:40.148Z,96660.31
2022-12-01T18:05:10.308Z,96655.22
2022-12-01T18:07:38.717Z,96657.78
2022-12-01T18:10:08.052Z,96656.88
2022-12-01T18:12:36.380Z,96659.25
2022-12-01T18:15:05.718Z,96660.06
2022-12-01T18:17:33.993Z,96664.09
2022-12-01T18:20:02.214Z,96664.03
2022-12-01T18:22:31.895Z,96666.00
2022-12-01T18:25:00.095Z,96666.59
2022-12-01T18:27:28.294Z,96672.28
2022-12-01T18:29:56.546Z,96669.94
2022-12-01T18:32:24.751Z,96672.28
2022-12-01T18:34:53.293Z,96673.56
2022-12-01T18:37:21.729Z,96670.44
2022-12-01T18:39:51.293Z,96673.38
2022-12-01T18:42:19.570Z,96670.63
2022-12-01T18:44:48.049Z,96669.25
2022-12-01T18:47:16.549Z,96676.53
2022-12-01T18:49:44.851Z,96671.88
2022-12-01T18:52:13.862Z,96676.84
2022-12-01T18:54:42.117Z,96673.31
2022-12-01T18:57:11.934Z,96675.38
2022-12-01T18:59:40.281Z,96668.88
2022-12-01T19:02:09.179Z,96677.03
2022-12-01T19:04:37.533Z,96671.69
2022-12-01T19:07:05.812Z,96672.88
2022-12-01T19:09:34.135Z,96667.13
2022-12-01T19:12:02.400Z,96666.41
2022-12-01T19:14:32.069Z,96655.53
2022-12-01T19:17:00.646Z,96670.09
2022-12-01T19:19:30.903Z,96663.75
2022-12-01T19:22:02.637Z,96668.91
2022-12-01T19:24:31.016Z,96663.38
2022-12-01T19:26:59.350Z,96659.09
2022-12-01T19:29:28.424Z,96668.03
2022-12-01T19:31:58.451Z,96671.25
2022-12-01T19:34:26.895Z,96665.34
2022-12-01T19:36:56.840Z,96666.91
2022-12-01T19:39:25.350Z,96663.69
2022-12-01T19:41:53.666Z,96662.94
2022-12-01T19:44:21.860Z,96665.88
2022-12-01T19:46:50.561Z,96673.16
2022-12-01T19:49:20.221Z,96668.81
2022-12-01T19:51:48.582Z,96669.78
2022-12-01T19:54:18.328Z,96668.63
2022-12-01T19:56:47.117Z,96667.59
2022-12-01T19:59:15.397Z,96673.00
2022-12-01T20:01:43.786Z,96675.53
2022-12-01T20:04:12.144Z,96668.91
2022-12-01T20:06:41.745Z,96662.84
2022-12-01T20:09:10.494Z,96668.47
2022-12-01T20:11:38.818Z,96665.66
2022-12-01T20:14:08.150Z,96665.00
2022-12-01T20:16:36.471Z,96668.75
2022-12-01T20:19:06.045Z,96667.22
2022-12-01T20:21:36.368Z,96659.13
2022-12-01T20:24:07.570Z,96665.22
2022-12-01T20:26:37.865Z,96671.41
2022-12-01T20:29:07.918Z,96669.16
2022-12-01T20:31:36.857Z,96665.25
2022-12-01T20:34:08.548Z,96666.56
2022-12-01T20:36:37.491Z,96672.59
2022-12-01T20:39:08.122Z,96662.75
2022-12-01T20:41:36.393Z,96669.81
2022-12-01T20:44:07.423Z,96665.69
2022-12-01T20:46:36.664Z,96662.97
2022-12-01T20:49:06.183Z,96677.50
2022-12-01T20:51:34.534Z,96673.72
2022-12-01T20:54:27.336Z,96661.44
2022-12-01T20:56:53.282Z,96669.38
2022-12-01T20:59:21.723Z,96667.63
2022-12-01T21:01:50.073Z,96667.94
2022-12-01T21:04:18.768Z,96664.63
2022-12-01T21:06:47.148Z,96667.56
2022-12-01T21:09:15.471Z,96666.31
2022-12-01T21:12:04.517Z,96662.66
2022-12-01T21:14:43.571Z,96664.84
2022-12-01T21:17:22.388Z,96656.75
2022-12-01T21:19:56.423Z,96665.69
2022-12-01T21:22:25.946Z,96662.03
2022-12-01T21:25:00.171Z,96664.13
2022-12-01T21:27:29.716Z,96654.47
2022-12-01T21:29:59.418Z,96665.75
2022-12-01T21:32:31.140Z,96653.16
2022-12-01T21:35:02.750Z,96653.06
2022-12-01T21:37:30.955Z,96659.97
2022-12-01T21:39:59.201Z,96659.91
2022-12-01T21:42:28.678Z,96657.19
2022-12-01T21:44:57.435Z,96659.91
2022-12-01T21:47:28.378Z,96656.31
2022-12-01T21:49:58.590Z,96658.75
2022-12-01T21:52:30.187Z,96657.56
2022-12-01T21:55:02.530Z,96651.78
2022-12-01T21:57:42.369Z,96657.88
2022-12-01T22:00:28.556Z,96657.28
2022-12-01T22:03:22.296Z,96656.88
2022-12-01T22:06:21.210Z,96652.59
2022-12-01T22:08:43.010Z,96649.31
2022-12-01T22:11:14.273Z,96645.22
2022-12-01T22:13:44.741Z,96641.25
2022-12-01T22:16:17.293Z,96642.91
2022-12-01T22:18:50.500Z,96637.63
2022-12-01T22:21:32.291Z,96638.72
2022-12-01T22:24:09.833Z,96640.69
2022-12-01T22:26:39.574Z,96634.13
2022-12-01T22:29:22.023Z,96635.63
2022-12-01T22:31:50.347Z,96641.72
2022-12-01T22:34:21.289Z,96631.47
2022-12-01T22:36:49.892Z,96634.53
2022-12-01T22:39:26.523Z,96634.75
2022-12-01T22:41:59.366Z,96628.19
2022-12-01T22:44:28.280Z,96624.06
2022-12-01T22:46:59.019Z,96623.84
2022-12-01T22:49:28.662Z,96624.97
2022-12-01T22:51:59.107Z,96618.22
2022-12-01T22:54:31.299Z,96622.09
2022-12-01T22:57:04.141Z,96616.50
2022-12-01T22:59:34.300Z,96615.59
2022-12-01T23:02:03.938Z,96622.09
2022-12-01T23:04:38.836Z,96609.69
2022-12-01T23:07:15.725Z,96612.91
2022-12-01T23:09:45.066Z,96613.13
2022-12-01T23:12:22.396Z,96610.66
2022-12-01T23:14:53.187Z,96612.22
2022-12-01T23:17:25.093Z,96614.56
2022-12-01T23:20:15.788Z,96609.34
2022-12-01T23:22:43.815Z,96603.31
2022-12-01T23:25:15.198Z,96603.59
2022-12-01T23:27:43.979Z,96604.28
2022-12-01T23:30:13.807Z,96604.19
2022-12-01T23:32:42.063Z,96600.03
2022-12-01T23:35:16.322Z,96599.88
2022-12-01T23:37:46.214Z,96593.94
2022-12-01T23:40:19.563Z,96586.91
2022-12-01T23:42:47.807Z,96592.50
2022-12-01T23:45:17.351Z,96589.59
2022-12-01T23:47:45.641Z,96589.16
2022-12-01T23:50:24.456Z,96592.63
2022-12-01T23:52:52.988Z,96585.75
2022-12-01T23:55:22.889Z,96577.34
2022-12-01T23:57:51.306Z,96583.75
